createdAt,value
2023-01-06T00:00:30.900Z,99450.34
2023-01-06T00:02:58.368Z,99461.84
2023-01-06T00:05:25.598Z,99460.44
2023-01-06T00:07:52.813Z,99475.87
2023-01-06T00:10:20.322Z,99475.09
2023-01-06T00:12:48.128Z,99488.34
2023-01-06T00:15:15.591Z,99483.09
2023-01-06T00:17:43.334Z,99481.25
2023-01-06T00:20:11.061Z,99489.94
2023-01-06T00:22:41.588Z,99480.81
2023-01-06T00:25:10.490Z,99492.22
2023-01-06T00:27:38.372Z,99480.31
2023-01-06T00:30:07.215Z,99479.59
2023-01-06T00:32:35.012Z,99476.38
2023-01-06T00:35:02.436Z,99486.19
2023-01-06T00:37:30.688Z,99494.28
2023-01-06T00:39:58.279Z,99512.00
2023-01-06T00:42:26.517Z,99511.78
2023-01-06T00:44:53.662Z,99516.06
2023-01-06T00:47:21.402Z,99521.97
2023-01-06T00:49:48.602Z,99518.69
2023-01-06T00:52:15.857Z,99515.34
2023-01-06T00:54:43.364Z,99522.28
2023-01-06T00:57:10.512Z,99513.75
2023-01-06T00:59:37.670Z,99524.59
2023-01-06T01:02:05.341Z,99526.16
2023-01-06T01:04:34.958Z,99526.91
2023-01-06T01:07:02.135Z,99530.69
2023-01-06T01:09:30.437Z,99533.44
2023-01-06T01:12:09.737Z,99545.38
2023-01-06T01:14:38.335Z,99544.88
2023-01-06T01:17:05.696Z,99546.81
2023-01-06T01:19:32.941Z,99550.59
2023-01-06T01:22:01.129Z,99549.63
2023-01-06T01:24:28.314Z,99552.84
2023-01-06T01:26:55.464Z,99551.37
2023-01-06T01:29:25.240Z,99561.00
2023-01-06T01:31:52.601Z,99567.84
2023-01-06T01:34:19.781Z,99583.72
2023-01-06T01:36:47.618Z,99577.25
2023-01-06T01:39:15.777Z,99573.22
2023-01-06T01:41:43.254Z,99571.25
2023-01-06T01:44:29.708Z,99573.38
2023-01-06T01:46:56.848Z,99574.87
2023-01-06T01:49:26.817Z,99564.50
2023-01-06T01:51:54.444Z,99576.84
2023-01-06T01:54:22.608Z,99574.56
2023-01-06T01:56:52.949Z,99571.56
2023-01-06T01:59:21.427Z,99575.97
2023-01-06T02:01:50.681Z,99574.72
2023-01-06T02:04:18.295Z,99584.28
2023-01-06T02:06:48.903Z,99579.41
2023-01-06T02:09:17.808Z,99586.12
2023-01-06T02:11:47.484Z,99579.66
2023-01-06T02:14:15.664Z,99588.50
2023-01-06T02:17:00.509Z,99596.50
2023-01-06T02:19:28.003Z,99588.44
2023-01-06T02:22:01.419Z,99590.09
2023-01-06T02:24:37.998Z,99592.06
2023-01-06T02:27:17.525Z,99596.34
2023-01-06T02:29:50.643Z,99603.19
2023-01-06T02:32:37.625Z,99606.50
2023-01-06T02:35:18.709Z,99600.72
2023-01-06T02:38:13.949Z,99600.59
2023-01-06T02:40:47.306Z,99593.44
2023-01-06T02:43:25.474Z,99600.75
2023-01-06T02:46:12.037Z,99606.16
2023-01-06T02:48:49.096Z,99604.78
2023-01-06T02:51:41.535Z,99594.44
2023-01-06T02:54:12.476Z,99599.91
2023-01-06T02:56:41.284Z,99609.72
2023-01-06T02:59:10.104Z,99616.78
2023-01-06T03:01:40.709Z,99613.81
2023-01-06T03:04:12.823Z,99628.72
2023-01-06T03:06:44.763Z,99620.25
2023-01-06T03:09:14.442Z,99639.88
2023-01-06T03:11:43.027Z,99637.78
2023-01-06T03:14:21.487Z,99638.41
2023-01-06T03:16:49.191Z,99636.47
2023-01-06T03:19:17.190Z,99631.75
2023-01-06T03:21:44.614Z,99630.47
2023-01-06T03:24:12.289Z,99633.69
2023-01-06T03:26:39.769Z,99629.41
2023-01-06T03:29:07.618Z,99620.72
2023-01-06T03:31:37.041Z,99628.88
2023-01-06T03:34:19.549Z,99623.09
2023-01-06T03:37:06.577Z,99622.00
2023-01-06T03:40:00.314Z,99618.47
2023-01-06T03:43:16.163Z,99615.53
2023-01-06T03:45:52.959Z,99619.00
2023-01-06T03:48:25.883Z,99619.94
2023-01-06T03:50:56.309Z,99623.41
2023-01-06T03:53:26.485Z,99620.97
2023-01-06T03:55:55.683Z,99622.53
2023-01-06T03:58:23.941Z,99620.59
2023-01-06T04:00:52.378Z,99620.87
2023-01-06T04:03:19.859Z,99628.16
2023-01-06T04:05:47.795Z,99636.22
2023-01-06T04:08:15.336Z,99657.97
2023-01-06T04:10:42.802Z,99655.63
2023-01-06T04:13:09.994Z,99666.91
2023-01-06T04:15:38.967Z,99664.41
2023-01-06T04:18:06.446Z,99662.34
2023-01-06T04:20:34.538Z,99669.03
2023-01-06T04:23:03.618Z,99680.19
2023-01-06T04:25:31.911Z,99664.41
2023-01-06T04:28:06.035Z,99658.75
2023-01-06T04:30:34.325Z,99657.09
2023-01-06T04:33:02.670Z,99661.25
2023-01-06T04:35:29.822Z,99656.81
2023-01-06T04:38:00.764Z,99651.56
2023-01-06T04:40:27.919Z,99644.09
2023-01-06T04:43:07.152Z,99657.31
2023-01-06T04:45:34.899Z,99647.34
2023-01-06T04:48:08.687Z,99664.47
2023-01-06T04:50:36.184Z,99659.94
2023-01-06T04:53:03.656Z,99660.75
2023-01-06T04:55:30.953Z,99665.44
2023-01-06T04:57:58.406Z,99678.34
2023-01-06T05:00:25.587Z,99675.75
2023-01-06T05:02:52.731Z,99683.94
2023-01-06T05:05:20.153Z,99684.75
2023-01-06T05:07:47.817Z,99700.28
2023-01-06T05:10:15.111Z,99700.00
2023-01-06T05:12:42.580Z,99709.06
2023-01-06T05:15:10.041Z,99706.28
2023-01-06T05:17:38.222Z,99710.44
2023-01-06T05:20:06.028Z,99704.84
2023-01-06T05:22:33.179Z,99712.81
2023-01-06T05:25:00.329Z,99710.25
2023-01-06T05:27:27.868Z,99702.03
2023-01-06T05:29:55.004Z,99706.31
2023-01-06T05:32:22.422Z,99707.75
2023-01-06T05:34:49.836Z,99719.06
2023-01-06T05:37:17.332Z,99718.44
2023-01-06T05:39:44.488Z,99714.13
2023-01-06T05:42:11.890Z,99730.16
2023-01-06T05:44:39.071Z,99736.22
2023-01-06T05:47:06.215Z,99740.91
2023-01-06T05:49:33.742Z,99740.22
2023-01-06T05:52:00.866Z,99747.47
2023-01-06T05:54:28.038Z,99752.34
2023-01-06T05:56:55.483Z,99750.47
2023-01-06T05:59:22.614Z,99761.69
2023-01-06T06:01:50.096Z,99759.84
2023-01-06T06:04:17.581Z,99765.97
2023-01-06T06:06:44.725Z,99765.25
2023-01-06T06:09:11.855Z,99766.63
2023-01-06T06:11:39.297Z,99766.63
2023-01-06T06:14:08.216Z,99769.00
2023-01-06T06:16:35.393Z,99764.16
2023-01-06T06:19:02.836Z,99761.12
2023-01-06T06:21:30.671Z,99774.59
2023-01-06T06:23:58.157Z,99762.94
2023-01-06T06:26:25.768Z,99764.63
2023-01-06T06:28:52.930Z,99777.94
2023-01-06T06:31:22.499Z,99767.66
2023-01-06T06:33:53.267Z,99781.91
2023-01-06T06:36:20.613Z,99778.75
2023-01-06T06:38:48.343Z,99780.81
2023-01-06T06:41:15.835Z,99786.97
2023-01-06T06:43:43.122Z,99791.94
2023-01-06T06:46:10.501Z,99792.03
2023-01-06T06:48:38.096Z,99793.03
2023-01-06T06:51:06.387Z,99798.13
2023-01-06T06:53:34.493Z,99792.91
2023-01-06T06:56:02.392Z,99800.22
2023-01-06T06:58:29.547Z,99797.22
2023-01-06T07:00:56.917Z,99796.69
2023-01-06T07:03:25.310Z,99802.41
2023-01-06T07:05:53.516Z,99800.94
2023-01-06T07:08:20.700Z,99808.03
2023-01-06T07:10:48.284Z,99814.72
2023-01-06T07:13:15.425Z,99813.88
2023-01-06T07:15:42.675Z,99828.41
2023-01-06T07:18:10.124Z,99826.25
2023-01-06T07:20:37.725Z,99837.25
2023-01-06T07:23:04.987Z,99837.50
2023-01-06T07:25:32.633Z,99848.00
2023-01-06T07:28:00.315Z,99848.78
2023-01-06T07:30:27.599Z,99844.03
2023-01-06T07:32:55.019Z,99838.31
2023-01-06T07:35:22.206Z,99839.94
2023-01-06T07:37:49.387Z,99830.31
2023-01-06T07:40:18.489Z,99830.34
2023-01-06T07:42:45.694Z,99833.37
2023-01-06T07:45:12.963Z,99834.13
2023-01-06T07:47:40.386Z,99830.19
2023-01-06T07:50:07.688Z,99831.31
2023-01-06T07:52:34.826Z,99832.00
2023-01-06T07:55:02.643Z,99828.84
2023-01-06T07:57:29.952Z,99837.22
2023-01-06T07:59:57.130Z,99840.50
2023-01-06T08:02:24.649Z,99839.25
2023-01-06T08:04:52.118Z,99836.81
2023-01-06T08:07:19.278Z,99837.22
2023-01-06T08:09:46.456Z,99840.09
2023-01-06T08:12:13.871Z,99833.16
2023-01-06T08:14:41.055Z,99831.31
2023-01-06T08:17:08.199Z,99819.63
2023-01-06T08:19:35.631Z,99813.97
2023-01-06T08:22:02.832Z,99811.56
2023-01-06T08:24:31.891Z,99804.06
2023-01-06T08:27:00.225Z,99798.91
2023-01-06T08:29:27.639Z,99800.41
2023-01-06T08:32:02.191Z,99797.47
2023-01-06T08:34:36.851Z,99798.84
2023-01-06T08:37:03.980Z,99800.66
2023-01-06T08:39:31.136Z,99802.94
2023-01-06T08:41:58.600Z,99793.00
2023-01-06T08:44:25.856Z,99796.03
2023-01-06T08:46:53.007Z,99796.25
2023-01-06T08:49:20.447Z,99800.66
2023-01-06T08:51:47.616Z,99794.53
2023-01-06T08:54:14.856Z,99798.84
2023-01-06T08:56:43.633Z,99807.72
2023-01-06T08:59:12.890Z,99818.50
2023-01-06T09:01:40.112Z,99828.44
2023-01-06T09:04:08.043Z,99826.09
2023-01-06T09:06:35.420Z,99836.22
2023-01-06T09:09:03.597Z,99856.44
2023-01-06T09:11:31.100Z,99852.75
2023-01-06T09:13:58.285Z,99852.53
2023-01-06T09:16:25.513Z,99849.31
2023-01-06T09:18:53.415Z,99850.22
2023-01-06T09:21:21.500Z,99853.94
2023-01-06T09:23:48.963Z,99851.03
2023-01-06T09:26:17.040Z,99853.12
2023-01-06T09:28:44.203Z,99852.75
2023-01-06T09:31:11.533Z,99855.34
2023-01-06T09:33:39.400Z,99867.81
2023-01-06T09:36:07.076Z,99854.88
2023-01-06T09:38:34.315Z,99856.50
2023-01-06T09:41:04.919Z,99864.06
2023-01-06T09:43:39.005Z,99854.50
2023-01-06T09:46:06.469Z,99844.66
2023-01-06T09:48:36.686Z,99847.81
2023-01-06T09:51:04.381Z,99847.69
2023-01-06T09:53:31.836Z,99848.94
2023-01-06T09:56:00.587Z,99846.28
2023-01-06T09:58:41.899Z,99844.91
2023-01-06T10:01:11.182Z,99846.97
2023-01-06T10:03:38.720Z,99855.53
2023-01-06T10:06:27.302Z,99854.28
2023-01-06T10:08:57.535Z,99852.84
2023-01-06T10:11:42.991Z,99842.84
2023-01-06T10:14:28.935Z,99847.03
2023-01-06T10:16:58.833Z,99848.59
2023-01-06T10:19:44.963Z,99835.78
2023-01-06T10:22:12.089Z,99840.94
2023-01-06T10:25:02.602Z,99844.47
2023-01-06T10:27:36.902Z,99833.13
2023-01-06T10:30:06.529Z,99840.19
2023-01-06T10:32:34.884Z,99836.53
2023-01-06T10:35:10.753Z,99834.25
2023-01-06T10:37:40.330Z,99842.66
2023-01-06T10:40:27.046Z,99835.03
2023-01-06T10:42:56.587Z,99833.13
2023-01-06T10:45:25.112Z,99832.97
2023-01-06T10:47:52.315Z,99841.63
2023-01-06T10:50:20.129Z,99842.50
2023-01-06T10:52:47.886Z,99829.59
2023-01-06T10:55:34.157Z,99829.38
2023-01-06T10:58:04.019Z,99831.81
2023-01-06T11:00:32.297Z,99835.41
2023-01-06T11:06:02.617Z,99831.16
2023-01-06T11:08:29.795Z,99824.72
2023-01-06T11:10:57.569Z,99826.44
2023-01-06T11:13:34.779Z,99823.91
2023-01-06T11:16:03.376Z,99823.31
2023-01-06T11:18:33.993Z,99824.28
2023-01-06T11:21:05.958Z,99821.62
2023-01-06T11:23:33.527Z,99819.44
2023-01-06T11:26:28.112Z,99811.84
2023-01-06T11:28:55.708Z,99811.37
2023-01-06T11:31:23.551Z,99815.41
2023-01-06T11:33:58.143Z,99810.41
2023-01-06T11:36:26.357Z,99815.25
2023-01-06T11:38:57.845Z,99807.91
2023-01-06T11:41:26.300Z,99800.16
2023-01-06T11:43:54.919Z,99808.41
2023-01-06T11:46:22.782Z,99791.75
2023-01-06T11:48:52.018Z,99790.94
2023-01-06T11:51:31.424Z,99793.53
2023-01-06T11:53:58.696Z,99797.28
2023-01-06T11:56:26.118Z,99797.44
2023-01-06T11:59:09.767Z,99793.09
2023-01-06T12:01:51.258Z,99798.97
2023-01-06T12:04:22.316Z,99792.16
2023-01-06T12:06:49.493Z,99782.63
2023-01-06T12:09:28.407Z,99785.06
2023-01-06T12:11:56.546Z,99782.03
2023-01-06T12:14:28.811Z,99770.09
2023-01-06T12:17:02.268Z,99761.59
2023-01-06T12:19:48.420Z,99754.84
2023-01-06T12:22:24.001Z,99755.28
2023-01-06T12:24:52.109Z,99745.94
2023-01-06T12:27:23.520Z,99743.41
2023-01-06T12:29:51.666Z,99736.50
2023-01-06T12:32:19.914Z,99742.63
2023-01-06T12:34:48.610Z,99740.78
2023-01-06T12:37:19.357Z,99738.03
2023-01-06T12:40:10.209Z,99733.91
2023-01-06T12:42:50.541Z,99727.75
2023-01-06T12:45:37.831Z,99730.38
2023-01-06T12:48:27.045Z,99728.66
2023-01-06T12:50:55.502Z,99722.59
2023-01-06T12:53:25.862Z,99720.81
2023-01-06T12:56:05.003Z,99728.50
2023-01-06T12:58:38.745Z,99719.00
2023-01-06T13:01:07.837Z,99726.03
2023-01-06T13:03:54.286Z,99715.50
2023-01-06T13:06:23.901Z,99716.47
2023-01-06T13:09:06.677Z,99715.50
2023-01-06T13:11:52.280Z,99715.59
2023-01-06T13:14:37.942Z,99710.31
2023-01-06T13:17:08.058Z,99716.47
2023-01-06T13:19:51.089Z,99714.72
2023-01-06T13:22:19.599Z,99724.31
2023-01-06T13:24:50.245Z,99721.69
2023-01-06T13:27:37.229Z,99727.78
2023-01-06T13:30:07.870Z,99729.53
2023-01-06T13:32:52.327Z,99715.50
2023-01-06T13:35:22.830Z,99719.00
2023-01-06T13:38:08.584Z,99708.50
2023-01-06T13:40:36.967Z,99708.56
2023-01-06T13:43:07.141Z,99716.38
2023-01-06T13:45:34.919Z,99719.00
2023-01-06T13:48:08.759Z,99727.69
2023-01-06T13:50:38.961Z,99726.00
2023-01-06T13:53:06.491Z,99721.56
2023-01-06T13:55:36.538Z,99718.91
2023-01-06T13:58:30.668Z,99719.84
2023-01-06T14:01:08.860Z,99723.31
2023-01-06T14:03:37.090Z,99719.00
2023-01-06T14:06:04.975Z,99714.59
2023-01-06T14:08:33.371Z,99715.47
2023-01-06T14:11:04.767Z,99719.81
2023-01-06T14:13:41.878Z,99720.47
2023-01-06T14:16:10.348Z,99724.22
2023-01-06T14:18:38.942Z,99722.44
2023-01-06T14:21:07.461Z,99721.53
2023-01-06T14:23:34.930Z,99720.47
2023-01-06T14:26:02.127Z,99720.47
2023-01-06T14:28:29.293Z,99719.44
2023-01-06T14:31:15.343Z,99717.84
2023-01-06T14:33:42.933Z,99720.31
2023-01-06T14:36:11.660Z,99717.72
2023-01-06T14:38:49.004Z,99722.31
2023-01-06T14:41:24.623Z,99716.00
2023-01-06T14:43:54.781Z,99720.41
2023-01-06T14:46:24.290Z,99717.69
2023-01-06T14:49:11.685Z,99717.84
2023-01-06T14:51:39.096Z,99715.22
2023-01-06T14:54:21.167Z,99715.19
2023-01-06T14:56:55.601Z,99714.38
2023-01-06T14:59:22.829Z,99715.28
2023-01-06T15:01:57.530Z,99726.66
2023-01-06T15:04:25.789Z,99724.03
2023-01-06T15:06:57.753Z,99719.66
2023-01-06T15:09:24.937Z,99724.13
2023-01-06T15:11:52.451Z,99717.97
2023-01-06T15:14:33.694Z,99720.56
2023-01-06T15:17:01.987Z,99718.84
2023-01-06T15:19:29.279Z,99723.22
2023-01-06T15:21:57.133Z,99717.97
2023-01-06T15:24:25.823Z,99723.22
2023-01-06T15:26:54.415Z,99725.00
2023-01-06T15:29:24.907Z,99720.66
2023-01-06T15:31:52.760Z,99720.66
2023-01-06T15:34:20.955Z,99719.81
2023-01-06T15:36:49.004Z,99717.25
2023-01-06T15:39:23.617Z,99716.38
2023-01-06T15:41:50.772Z,99724.28
2023-01-06T15:44:21.759Z,99714.69
2023-01-06T15:46:49.545Z,99722.56
2023-01-06T15:49:22.919Z,99721.69
2023-01-06T15:51:57.661Z,99719.97
2023-01-06T15:54:26.512Z,99719.94
2023-01-06T15:56:54.307Z,99718.19
2023-01-06T15:59:21.552Z,99729.53
2023-01-06T16:01:52.640Z,99730.41
2023-01-06T16:04:20.833Z,99740.88
2023-01-06T16:06:48.136Z,99732.19
2023-01-06T16:09:25.887Z,99735.66
2023-01-06T16:12:14.792Z,99736.53
2023-01-06T16:14:46.144Z,99732.16
2023-01-06T16:17:23.312Z,99732.16
2023-01-06T16:19:51.654Z,99733.91
2023-01-06T16:22:25.580Z,99734.78
2023-01-06T16:24:52.971Z,99729.56
2023-01-06T16:27:24.359Z,99736.50
2023-01-06T16:30:12.615Z,99738.25
2023-01-06T16:32:40.604Z,99730.41
2023-01-06T16:35:11.794Z,99737.38
2023-01-06T16:37:39.713Z,99742.63
2023-01-06T16:40:07.916Z,99737.38
2023-01-06T16:42:42.408Z,99749.59
2023-01-06T16:45:23.341Z,99740.00
2023-01-06T16:47:50.688Z,99742.63
2023-01-06T16:50:31.199Z,99733.03
2023-01-06T16:53:02.697Z,99728.69
2023-01-06T16:55:30.436Z,99733.91
2023-01-06T16:57:57.962Z,99723.47
2023-01-06T17:00:25.090Z,99728.69
2023-01-06T17:02:52.616Z,99736.50
2023-01-06T17:05:21.374Z,99740.00
2023-01-06T17:07:49.080Z,99740.03
2023-01-06T17:10:17.924Z,99740.88
2023-01-06T17:13:05.442Z,99733.06
2023-01-06T17:15:32.916Z,99718.22
2023-01-06T17:18:00.069Z,99716.47
2023-01-06T17:20:28.853Z,99713.84
2023-01-06T17:22:56.292Z,99707.75
2023-01-06T17:25:23.938Z,99720.84
2023-01-06T17:27:51.121Z,99719.97
2023-01-06T17:30:19.992Z,99723.44
2023-01-06T17:32:48.862Z,99720.81
2023-01-06T17:35:27.257Z,99729.56
2023-01-06T17:37:58.947Z,99731.28
2023-01-06T17:40:28.701Z,99736.50
2023-01-06T17:43:05.356Z,99741.75
2023-01-06T17:45:32.738Z,99739.12
2023-01-06T17:48:00.289Z,99737.38
2023-01-06T17:50:27.521Z,99736.47
2023-01-06T17:53:20.114Z,99734.75
2023-01-06T17:55:49.045Z,99738.25
2023-01-06T17:58:17.557Z,99738.25
2023-01-06T18:00:44.929Z,99736.53
2023-01-06T18:03:15.736Z,99745.22
2023-01-06T18:05:48.472Z,99741.69
2023-01-06T18:08:16.192Z,99742.63
2023-01-06T18:10:43.968Z,99756.56
2023-01-06T18:13:17.342Z,99765.31
2023-01-06T18:15:51.957Z,99763.56
2023-01-06T18:18:21.207Z,99762.66
2023-01-06T18:20:57.806Z,99760.06
2023-01-06T18:23:24.992Z,99751.31
2023-01-06T18:25:53.394Z,99752.22
2023-01-06T18:28:20.721Z,99763.53
2023-01-06T18:30:51.215Z,99759.19
2023-01-06T18:33:18.645Z,99766.16
2023-01-06T18:35:46.914Z,99753.97
2023-01-06T18:38:14.217Z,99747.84
2023-01-06T18:40:42.031Z,99733.03
2023-01-06T18:43:18.982Z,99740.03
2023-01-06T18:45:46.831Z,99748.66
2023-01-06T18:48:15.148Z,99754.78
2023-01-06T18:50:43.146Z,99757.44
2023-01-06T18:53:13.318Z,99753.09
2023-01-06T18:55:41.991Z,99764.44
2023-01-06T18:58:12.307Z,99765.25
2023-01-06T19:00:41.270Z,99764.41
2023-01-06T19:03:15.657Z,99767.94
2023-01-06T19:05:43.601Z,99771.41
2023-01-06T19:08:12.927Z,99769.62
2023-01-06T19:10:40.595Z,99767.00
2023-01-06T19:13:12.900Z,99756.56
2023-01-06T19:15:40.795Z,99768.78
2023-01-06T19:18:12.523Z,99764.41
2023-01-06T19:20:40.110Z,99760.06
2023-01-06T19:23:27.151Z,99753.94
2023-01-06T19:25:57.948Z,99741.72
2023-01-06T19:28:32.429Z,99748.72
2023-01-06T19:31:01.000Z,99743.50
2023-01-06T19:33:46.175Z,99736.53
2023-01-06T19:36:13.566Z,99733.91
2023-01-06T19:38:41.357Z,99728.69
2023-01-06T19:41:28.757Z,99731.28
2023-01-06T19:44:09.247Z,99739.12
2023-01-06T19:46:43.867Z,99732.16
2023-01-06T19:49:11.475Z,99729.56
2023-01-06T19:51:39.985Z,99729.56
2023-01-06T19:54:10.227Z,99731.28
2023-01-06T19:56:38.918Z,99728.69
2023-01-06T19:59:16.144Z,99727.78
2023-01-06T20:01:44.137Z,99726.06
2023-01-06T20:04:17.263Z,99720.84
2023-01-06T20:06:44.703Z,99713.00
2023-01-06T20:09:13.168Z,99713.81
2023-01-06T20:11:42.452Z,99720.78
2023-01-06T20:14:10.304Z,99725.97
2023-01-06T20:16:37.541Z,99732.13
2023-01-06T20:19:05.357Z,99729.50
2023-01-06T20:21:32.955Z,99727.75
2023-01-06T20:24:00.386Z,99733.03
2023-01-06T20:26:28.037Z,99734.78
2023-01-06T20:28:55.331Z,99729.47
2023-01-06T20:31:22.984Z,99735.66
2023-01-06T20:33:50.490Z,99733.00
2023-01-06T20:36:17.755Z,99734.78
2023-01-06T20:38:45.055Z,99732.16
2023-01-06T20:41:12.546Z,99732.16
2023-01-06T20:43:39.716Z,99725.19
2023-01-06T20:46:07.505Z,99733.91
2023-01-06T20:48:35.119Z,99737.41
2023-01-06T20:51:02.655Z,99733.06
2023-01-06T20:53:30.256Z,99732.19
2023-01-06T20:55:58.124Z,99740.00
2023-01-06T20:58:25.385Z,99742.63
2023-01-06T21:00:52.943Z,99738.25
2023-01-06T21:03:20.717Z,99750.47
2023-01-06T21:05:48.087Z,99741.72
2023-01-06T21:08:15.554Z,99740.03
2023-01-06T21:10:43.044Z,99734.75
2023-01-06T21:13:10.450Z,99738.25
2023-01-06T21:15:37.693Z,99728.66
2023-01-06T21:18:05.159Z,99730.41
2023-01-06T21:20:32.352Z,99721.69
2023-01-06T21:22:59.725Z,99724.28
2023-01-06T21:25:27.222Z,99720.81
2023-01-06T21:27:54.717Z,99725.16
2023-01-06T21:30:22.705Z,99735.66
2023-01-06T21:32:50.268Z,99740.88
2023-01-06T21:35:17.487Z,99743.50
2023-01-06T21:37:44.647Z,99739.97
2023-01-06T21:40:14.927Z,99734.72
2023-01-06T21:43:00.774Z,99741.75
2023-01-06T21:45:28.311Z,99761.78
2023-01-06T21:47:55.573Z,99744.97
2023-01-06T21:50:26.006Z,99736.34
2023-01-06T21:52:54.232Z,99746.69
2023-01-06T21:55:21.409Z,99731.16
2023-01-06T21:57:48.667Z,99728.53
2023-01-06T22:00:16.372Z,99731.19
2023-01-06T22:02:44.843Z,99733.00
2023-01-06T22:05:12.216Z,99734.69
2023-01-06T22:07:49.565Z,99736.47
2023-01-06T22:10:18.307Z,99724.25
2023-01-06T22:12:45.653Z,99726.00
2023-01-06T22:15:12.873Z,99718.16
2023-01-06T22:17:40.295Z,99712.91
2023-01-06T22:20:07.636Z,99713.81
2023-01-06T22:22:34.891Z,99713.84
2023-01-06T22:25:03.599Z,99715.62
2023-01-06T22:27:30.745Z,99719.03
2023-01-06T22:29:57.906Z,99719.87
2023-01-06T22:32:27.531Z,99720.78
2023-01-06T22:34:54.669Z,99719.03
2023-01-06T22:37:21.838Z,99707.75
2023-01-06T22:40:00.682Z,99710.38
2023-01-06T22:42:28.676Z,99708.56
2023-01-06T22:44:56.285Z,99712.06
2023-01-06T22:47:23.418Z,99716.47
2023-01-06T22:49:50.543Z,99716.47
2023-01-06T22:52:18.104Z,99714.69
2023-01-06T22:54:45.262Z,99712.94
2023-01-06T22:57:12.403Z,99719.87
2023-01-06T22:59:39.895Z,99711.19
2023-01-06T23:02:10.688Z,99703.37
2023-01-06T23:04:39.695Z,99703.25
2023-01-06T23:07:06.840Z,99700.69
2023-01-06T23:09:33.976Z,99701.41
2023-01-06T23:12:01.817Z,99705.81
2023-01-06T23:14:29.076Z,99705.75
2023-01-06T23:16:58.791Z,99697.16
2023-01-06T23:19:26.455Z,99709.38
2023-01-06T23:21:53.665Z,99705.88
2023-01-06T23:24:20.801Z,99707.56
2023-01-06T23:26:51.135Z,99709.38
2023-01-06T23:29:18.302Z,99704.16
2023-01-06T23:31:45.913Z,99709.94
2023-01-06T23:34:14.541Z,99710.91
2023-01-06T23:36:53.859Z,99705.78
2023-01-06T23:39:29.097Z,99698.75
2023-01-06T23:41:56.406Z,99699.50
2023-01-06T23:44:23.619Z,99700.31
2023-01-06T23:46:51.070Z,99701.28
2023-01-06T23:49:18.385Z,99692.59
2023-01-06T23:51:45.519Z,99703.91
2023-01-06T23:54:13.078Z,99716.12
2023-01-06T23:56:40.223Z,99713.13
2023-01-06T23:59:07.757Z,99719.37
